createdAt,value
2019-03-26T00:04:17.095Z,81.10
2019-03-26T00:09:18.541Z,81.20
2019-03-26T00:14:19.896Z,81.50
2019-03-26T00:19:21.362Z,81.70
2019-03-26T00:24:22.830Z,80.60
2019-03-26T00:29:24.267Z,80.10
2019-03-26T00:34:27.484Z,79.50
2019-03-26T00:39:29.029Z,79.40
2019-03-26T00:44:30.675Z,79.10
2019-03-26T00:49:32.064Z,79.20
2019-03-26T00:54:33.641Z,79.70
2019-03-26T00:59:35.031Z,80.10
2019-03-26T01:04:36.486Z,80.60
2019-03-26T01:09:38.095Z,81.10
2019-03-26T01:14:39.413Z,81.10
2019-03-26T01:19:40.953Z,81.00
2019-03-26T01:24:42.505Z,80.90
2019-03-26T01:29:44.082Z,80.80
2019-03-26T01:34:46.386Z,80.80
2019-03-26T01:39:48.174Z,80.60
2019-03-26T01:44:51.639Z,80.80
2019-03-26T01:49:53.166Z,80.90
2019-03-26T01:54:55.762Z,80.90
2019-03-26T01:59:57.211Z,80.50
2019-03-26T02:05:00.122Z,79.80
2019-03-26T02:10:02.009Z,79.50
2019-03-26T02:15:07.186Z,79.40
2019-03-26T02:20:08.823Z,79.20
2019-03-26T02:25:10.432Z,79.00
2019-03-26T02:30:11.923Z,79.00
2019-03-26T02:35:18.134Z,79.00
2019-03-26T02:40:16.548Z,79.10
2019-03-26T02:45:17.973Z,79.10
2019-03-26T02:50:19.360Z,79.20
2019-03-26T02:55:21.008Z,79.30
2019-03-26T03:00:22.502Z,79.30
2019-03-26T03:05:35.200Z,79.50
2019-03-26T03:10:27.354Z,79.50
2019-03-26T03:15:28.788Z,79.60
2019-03-26T03:20:30.187Z,79.70
2019-03-26T03:25:31.702Z,79.80
2019-03-26T03:30:33.242Z,79.90
2019-03-26T03:35:50.784Z,81.00
2019-03-26T03:40:37.975Z,80.30
2019-03-26T03:45:40.534Z,80.60
2019-03-26T03:50:44.459Z,80.80
2019-03-26T03:55:49.368Z,80.80
2019-03-26T04:00:50.922Z,80.90
2019-03-26T04:06:07.818Z,81.20
2019-03-26T04:10:55.671Z,81.30
2019-03-26T04:15:57.652Z,81.80
2019-03-26T04:20:58.950Z,82.30
2019-03-26T04:26:00.460Z,82.30
2019-03-26T04:31:01.896Z,82.70
2019-03-26T04:36:03.441Z,83.10
2019-03-26T04:41:23.441Z,83.50
2019-03-26T04:46:24.733Z,83.90
2019-03-26T04:51:26.209Z,84.30
2019-03-26T04:56:27.628Z,84.50
2019-03-26T05:01:29.104Z,84.90
2019-03-26T05:06:37.852Z,85.30
2019-03-26T05:11:34.643Z,85.80
2019-03-26T05:16:35.955Z,86.30
2019-03-26T05:21:37.462Z,86.70
2019-03-26T05:26:38.971Z,87.00
2019-03-26T05:31:41.906Z,87.30
2019-03-26T05:36:51.127Z,87.40
2019-03-26T05:41:46.769Z,87.60
2019-03-26T05:46:48.199Z,87.60
2019-03-26T05:56:58.222Z,87.50
2019-03-26T06:01:59.559Z,87.90
2019-03-26T06:07:05.012Z,87.90
2019-03-26T06:12:04.373Z,87.80
2019-03-26T06:17:06.151Z,87.60
2019-03-26T06:22:07.478Z,87.70
2019-03-26T06:27:09.402Z,87.60
2019-03-26T06:32:10.967Z,87.20
2019-03-26T06:37:17.982Z,87.50
2019-03-26T06:42:16.246Z,87.60
2019-03-26T06:47:17.595Z,88.10
2019-03-26T06:52:18.922Z,88.40
2019-03-26T06:57:20.366Z,88.70
2019-03-26T07:02:24.687Z,89.20
2019-03-26T07:07:31.842Z,89.60
2019-03-26T07:12:29.440Z,89.80
2019-03-26T07:17:31.042Z,89.60
2019-03-26T07:22:32.463Z,89.30
2019-03-26T07:27:33.907Z,89.30
2019-03-26T07:32:35.236Z,89.20
2019-03-26T07:37:45.042Z,89.00
2019-03-26T07:42:50.125Z,88.30
2019-03-26T07:47:51.445Z,87.60
2019-03-26T07:52:52.890Z,87.10
2019-03-26T07:57:54.344Z,87.00
2019-03-26T08:02:58.874Z,85.80
2019-03-26T08:08:00.494Z,84.60
2019-03-26T08:13:01.941Z,83.70
2019-03-26T08:18:03.434Z,83.30
2019-03-26T08:23:05.074Z,82.70
2019-03-26T08:28:06.946Z,82.30
2019-03-26T08:33:08.237Z,81.40
2019-03-26T08:38:12.949Z,80.30
2019-03-26T08:43:13.010Z,79.30
2019-03-26T08:48:14.548Z,78.50
2019-03-26T08:53:16.000Z,77.40
2019-03-26T08:58:18.248Z,76.80
2019-03-26T09:03:19.716Z,75.80
2019-03-26T09:08:25.682Z,76.70
2019-03-26T09:13:24.620Z,76.10
2019-03-26T09:18:26.065Z,75.80
2019-03-26T09:23:27.427Z,73.60
2019-03-26T09:28:28.841Z,73.90
2019-03-26T09:33:30.353Z,74.10
2019-03-26T09:38:38.949Z,74.80
2019-03-26T09:43:36.570Z,74.40
2019-03-26T09:48:38.266Z,73.70
2019-03-26T09:53:39.947Z,72.80
2019-03-26T09:58:41.488Z,71.30
2019-03-26T10:03:44.004Z,70.50
2019-03-26T10:08:52.458Z,70.60
2019-03-26T10:13:48.800Z,70.60
2019-03-26T10:18:50.214Z,71.10
2019-03-26T10:23:51.733Z,70.70
2019-03-26T10:28:53.562Z,70.70
2019-03-26T10:33:55.004Z,70.60
2019-03-26T10:39:05.250Z,70.80
2019-03-26T10:43:59.883Z,70.20
2019-03-26T10:49:01.254Z,70.00
2019-03-26T10:54:02.950Z,69.40
2019-03-26T10:59:04.530Z,69.10
2019-03-26T11:04:07.837Z,68.20
2019-03-26T11:09:21.358Z,67.00
2019-03-26T11:14:12.776Z,67.20
2019-03-26T11:19:14.234Z,67.40
2019-03-26T11:24:17.680Z,67.20
2019-03-26T11:29:19.417Z,67.40
2019-03-26T11:34:20.806Z,67.40
2019-03-26T11:39:32.091Z,67.30
2019-03-26T11:44:25.571Z,67.30
2019-03-26T11:49:26.913Z,67.60
2019-03-26T11:54:28.334Z,68.20
2019-03-26T11:59:29.652Z,69.70
2019-03-26T12:04:31.137Z,70.90
2019-03-26T12:09:45.206Z,71.80
2019-03-26T12:14:36.030Z,72.00
2019-03-26T12:19:37.560Z,72.60
2019-03-26T12:24:39.039Z,72.80
2019-03-26T12:29:40.789Z,72.70
2019-03-26T12:34:42.051Z,72.30
2019-03-26T12:39:44.383Z,72.30
2019-03-26T12:44:46.275Z,72.50
2019-03-26T12:49:47.855Z,72.10
2019-03-26T12:54:49.201Z,72.40
2019-03-26T12:59:52.384Z,72.40
2019-03-26T13:04:53.911Z,72.30
2019-03-26T13:09:55.412Z,72.40
2019-03-26T13:14:59.336Z,72.10
2019-03-26T13:20:00.333Z,71.00
2019-03-26T13:25:06.958Z,70.10
2019-03-26T13:30:10.922Z,69.10
2019-03-26T13:35:12.822Z,68.00
2019-03-26T13:40:26.629Z,66.90
2019-03-26T13:45:18.317Z,64.90
2019-03-26T13:50:19.858Z,64.40
2019-03-26T13:55:21.485Z,63.50
2019-03-26T14:00:37.975Z,63.70
2019-03-26T14:05:41.173Z,63.00
2019-03-26T14:10:43.040Z,62.50
2019-03-26T14:15:44.711Z,62.50
2019-03-26T14:20:46.236Z,61.70
2019-03-26T14:25:47.646Z,62.80
2019-03-26T14:30:49.137Z,62.40
2019-03-26T14:35:50.614Z,61.90
2019-03-26T14:40:55.203Z,62.30
2019-03-26T14:45:56.787Z,62.50
2019-03-26T14:50:58.070Z,62.50
2019-03-26T14:56:01.300Z,62.50
2019-03-26T15:01:02.791Z,62.90
2019-03-26T15:06:04.676Z,63.30
2019-03-26T15:11:08.280Z,63.00
2019-03-26T15:16:09.700Z,62.90
2019-03-26T15:21:11.293Z,63.10
2019-03-26T15:26:12.696Z,63.30
2019-03-26T15:31:14.871Z,63.40
2019-03-26T15:36:16.543Z,63.30
2019-03-26T15:41:21.919Z,63.10
2019-03-26T15:46:21.596Z,63.20
2019-03-26T15:51:22.966Z,63.40
2019-03-26T15:56:24.523Z,63.40
2019-03-26T16:01:26.226Z,62.30
2019-03-26T16:06:30.157Z,62.60
2019-03-26T16:11:35.985Z,62.80
2019-03-26T16:16:35.093Z,63.50
2019-03-26T16:21:36.811Z,64.00
2019-03-26T16:26:38.413Z,64.20
2019-03-26T16:31:39.938Z,64.40
2019-03-26T16:36:41.468Z,65.10
2019-03-26T16:41:49.215Z,65.10
2019-03-26T16:46:48.805Z,65.00
2019-03-26T16:51:52.001Z,65.10
2019-03-26T16:56:53.674Z,65.30
2019-03-26T17:01:55.248Z,65.80
2019-03-26T17:06:58.619Z,65.70
2019-03-26T17:12:03.537Z,65.80
2019-03-26T17:17:07.164Z,66.40
2019-03-26T17:22:08.894Z,66.90
2019-03-26T17:27:10.545Z,67.40
2019-03-26T17:32:12.408Z,68.00
2019-03-26T17:37:14.005Z,68.40
2019-03-26T17:42:17.398Z,68.90
2019-03-26T17:47:19.676Z,69.90
2019-03-26T17:52:21.554Z,70.20
2019-03-26T17:57:24.928Z,71.10
2019-03-26T18:02:26.396Z,71.80
2019-03-26T18:07:29.735Z,73.30
2019-03-26T18:12:31.457Z,73.60
2019-03-26T18:17:33.202Z,74.50
2019-03-26T18:22:34.624Z,75.20
2019-03-26T18:27:37.183Z,75.60
2019-03-26T18:32:41.676Z,76.40
2019-03-26T18:37:43.599Z,76.90
2019-03-26T18:42:45.077Z,77.90
2019-03-26T18:47:46.590Z,78.30
2019-03-26T18:52:48.075Z,78.70
2019-03-26T18:57:49.499Z,79.10
2019-03-26T19:02:51.070Z,79.50
2019-03-26T19:07:52.741Z,80.00
2019-03-26T19:12:57.188Z,80.30
2019-03-26T19:17:58.586Z,81.00
2019-03-26T19:23:00.164Z,81.50
2019-03-26T19:28:01.838Z,81.60
2019-03-26T19:33:03.510Z,81.80
2019-03-26T19:38:05.105Z,82.30
2019-03-26T19:43:11.088Z,82.70
2019-03-26T19:48:11.527Z,82.90
2019-03-26T19:53:12.863Z,83.30
2019-03-26T19:58:14.282Z,83.30
2019-03-26T20:03:15.961Z,83.80
2019-03-26T20:08:17.607Z,83.80
2019-03-26T20:13:24.774Z,84.60
2019-03-26T20:18:22.943Z,84.70
2019-03-26T20:23:24.341Z,84.60
2019-03-26T20:28:26.888Z,84.80
2019-03-26T20:33:28.477Z,85.00
2019-03-26T20:38:30.362Z,85.00
2019-03-26T20:43:37.159Z,85.70
2019-03-26T20:48:35.084Z,85.40
2019-03-26T20:53:36.611Z,85.50
2019-03-26T20:58:38.212Z,85.70
2019-03-26T21:03:39.567Z,85.80
2019-03-26T21:08:41.226Z,85.80
2019-03-26T21:13:50.727Z,86.00
2019-03-26T21:18:46.651Z,85.90
2019-03-26T21:23:48.567Z,86.00
2019-03-26T21:28:50.258Z,86.20
2019-03-26T21:34:10.345Z,86.20
2019-03-26T21:39:11.944Z,86.40
2019-03-26T21:44:13.653Z,86.60
2019-03-26T21:49:15.095Z,86.80
2019-03-26T21:54:16.715Z,87.00
2019-03-26T21:59:18.182Z,87.20
2019-03-26T22:04:19.606Z,87.50
2019-03-26T22:09:21.122Z,87.60
2019-03-26T22:14:22.420Z,87.80
2019-03-26T22:19:28.772Z,88.00
2019-03-26T22:24:28.258Z,88.00
2019-03-26T22:29:30.011Z,88.10
2019-03-26T22:34:31.905Z,88.30
2019-03-26T22:39:33.566Z,88.60
2019-03-26T22:44:36.082Z,88.70
2019-03-26T22:49:38.064Z,88.90
2019-03-26T22:54:39.656Z,89.00
2019-03-26T22:59:59.520Z,89.20
2019-03-26T23:05:01.056Z,89.50
2019-03-26T23:10:04.046Z,89.40
2019-03-26T23:15:24.920Z,89.60
2019-03-26T23:20:26.521Z,90.00
2019-03-26T23:25:28.002Z,89.90
2019-03-26T23:30:31.846Z,90.00
2019-03-26T23:35:33.491Z,90.00
2019-03-26T23:40:35.067Z,90.00
2019-03-26T23:45:36.494Z,90.00
2019-03-26T23:50:38.225Z,90.30
2019-03-26T23:55:39.582Z,90.30
